createdAt,value
2023-03-05T00:01:29.224Z,24.67
2023-03-05T00:04:21.738Z,25.68
2023-03-05T00:07:14.539Z,24.65
2023-03-05T00:10:08.594Z,25.20
2023-03-05T00:12:59.917Z,25.60
2023-03-05T00:15:51.459Z,24.20
2023-03-05T00:18:43.364Z,25.25
2023-03-05T00:21:37.037Z,24.10
2023-03-05T00:24:28.678Z,25.72
2023-03-05T00:27:20.294Z,24.57
2023-03-05T00:30:20.431Z,24.37
2023-03-05T00:33:14.776Z,24.07
2023-03-05T00:36:09.547Z,24.45
2023-03-05T00:39:00.993Z,24.12
2023-03-05T00:41:52.596Z,24.35
2023-03-05T00:44:43.964Z,25.08
2023-03-05T00:47:35.210Z,23.92
2023-03-05T00:50:26.871Z,24.72
2023-03-05T00:53:18.417Z,24.37
2023-03-05T00:56:10.088Z,25.10
2023-03-05T00:59:01.833Z,24.02
2023-03-05T01:01:53.197Z,24.13
2023-03-05T01:04:47.133Z,25.02
2023-03-05T01:07:43.528Z,24.60
2023-03-05T01:10:36.353Z,23.70
2023-03-05T01:13:28.060Z,23.90
2023-03-05T01:16:19.523Z,23.32
2023-03-05T01:19:11.174Z,23.05
2023-03-05T01:22:03.910Z,21.75
2023-03-05T01:24:55.116Z,22.22
2023-03-05T01:27:47.436Z,20.57
2023-03-05T01:30:39.805Z,20.85
2023-03-05T01:33:31.025Z,20.23
2023-03-05T01:36:24.424Z,19.98
2023-03-05T01:39:15.869Z,20.25
2023-03-05T01:42:08.209Z,20.90
2023-03-05T01:45:05.495Z,20.95
2023-03-05T01:47:57.159Z,20.90
2023-03-05T01:50:48.964Z,20.75
2023-03-05T01:53:41.365Z,20.65
2023-03-05T01:56:33.984Z,21.27
2023-03-05T01:59:26.799Z,20.32
2023-03-05T02:02:19.874Z,20.70
2023-03-05T02:05:14.431Z,21.27
2023-03-05T02:08:08.017Z,19.70
2023-03-05T02:11:00.488Z,19.42
2023-03-05T02:13:52.304Z,13.75
2023-03-05T02:16:45.496Z,19.02
2023-03-05T02:19:51.707Z,14.55
2023-03-05T02:22:43.133Z,19.55
2023-03-05T02:25:34.696Z,18.00
2023-03-05T02:31:14.780Z,18.10
2023-03-05T02:34:06.905Z,18.73
2023-03-05T02:36:58.521Z,17.87
2023-03-05T02:39:50.356Z,16.93
2023-03-05T02:42:42.561Z,17.82
2023-03-05T02:45:36.049Z,15.53
2023-03-05T02:48:28.333Z,16.15
2023-03-05T02:51:20.048Z,13.93
2023-03-05T02:54:12.239Z,15.48
2023-03-05T02:57:04.141Z,16.05
2023-03-05T02:59:56.122Z,15.23
2023-03-05T03:02:47.640Z,15.90
2023-03-05T03:05:39.567Z,15.15
2023-03-05T03:08:30.922Z,16.00
2023-03-05T03:11:22.495Z,15.72
2023-03-05T03:14:14.034Z,15.85
2023-03-05T03:17:37.039Z,16.40
2023-03-05T03:20:29.306Z,15.70
2023-03-05T03:23:21.098Z,16.12
2023-03-05T03:26:12.231Z,15.65
2023-03-05T03:29:05.434Z,15.45
2023-03-05T03:31:56.604Z,16.48
2023-03-05T03:34:48.506Z,17.32
2023-03-05T03:37:42.697Z,16.52
2023-03-05T03:40:37.764Z,15.78
2023-03-05T03:43:31.924Z,16.57
2023-03-05T03:46:23.546Z,16.87
2023-03-05T03:49:17.933Z,18.12
2023-03-05T03:52:10.000Z,16.80
2023-03-05T03:55:02.296Z,15.45
2023-03-05T03:57:53.547Z,17.57
2023-03-05T04:00:44.899Z,18.12
2023-03-05T04:03:36.232Z,17.12
2023-03-05T04:06:27.364Z,17.85
2023-03-05T04:09:19.051Z,16.45
2023-03-05T04:12:34.185Z,17.87
2023-03-05T04:15:26.063Z,17.02
2023-03-05T04:18:17.674Z,14.95
2023-03-05T04:21:09.510Z,16.85
2023-03-05T04:24:02.395Z,17.48
2023-03-05T04:26:53.989Z,17.77
2023-03-05T04:32:28.874Z,19.00
2023-03-05T04:35:22.378Z,17.25
2023-03-05T04:38:16.358Z,17.05
2023-03-05T04:41:07.951Z,16.73
2023-03-05T04:43:59.167Z,16.97
2023-03-05T04:46:50.436Z,16.82
2023-03-05T04:50:00.522Z,16.15
2023-03-05T04:52:51.749Z,15.25
2023-03-05T04:55:46.472Z,16.82
2023-03-05T04:58:38.004Z,18.32
2023-03-05T05:01:29.728Z,17.42
2023-03-05T05:04:20.832Z,18.35
2023-03-05T05:07:12.339Z,17.27
2023-03-05T05:10:03.924Z,17.95
2023-03-05T05:12:55.596Z,17.37
2023-03-05T05:15:47.346Z,17.85
2023-03-05T05:18:38.725Z,18.50
2023-03-05T05:21:30.188Z,18.42
2023-03-05T05:24:21.466Z,16.77
2023-03-05T05:27:12.880Z,18.92
2023-03-05T05:30:05.304Z,18.87
2023-03-05T05:32:56.461Z,17.12
2023-03-05T05:35:48.002Z,18.52
2023-03-05T05:38:39.695Z,19.45
2023-03-05T05:41:31.177Z,19.25
2023-03-05T05:44:22.778Z,18.37
2023-03-05T05:47:14.040Z,19.48
2023-03-05T05:50:24.829Z,19.62
2023-03-05T05:53:13.386Z,19.60
2023-03-05T05:56:07.952Z,19.12
2023-03-05T06:12:43.755Z,18.75
2023-03-05T06:18:23.723Z,20.08
2023-03-05T06:21:17.999Z,17.95
2023-03-05T06:24:13.957Z,18.02
2023-03-05T06:27:22.721Z,20.55
2023-03-05T06:33:07.775Z,18.85
2023-03-05T06:35:59.171Z,18.25
2023-03-05T06:38:53.239Z,20.75
2023-03-05T06:41:44.802Z,20.05
2023-03-05T06:44:36.063Z,18.98
2023-03-05T06:50:19.002Z,19.92
2023-03-05T06:53:10.493Z,18.77
2023-03-05T06:56:04.649Z,19.75
2023-03-05T06:58:56.004Z,20.75
2023-03-05T07:01:48.143Z,20.02
2023-03-05T07:04:40.774Z,20.85
2023-03-05T07:07:32.165Z,20.17
2023-03-05T07:10:23.734Z,20.40
2023-03-05T07:13:15.301Z,20.77
2023-03-05T07:16:10.582Z,20.52
2023-03-05T07:19:07.681Z,20.70
2023-03-05T07:22:14.769Z,20.10
2023-03-05T07:25:07.136Z,18.85
2023-03-05T07:27:58.576Z,21.87
2023-03-05T07:30:59.817Z,21.00
2023-03-05T07:33:51.918Z,20.77
2023-03-05T07:37:06.623Z,21.40
2023-03-05T07:40:04.743Z,19.50
2023-03-05T07:43:01.688Z,20.08
2023-03-05T07:45:58.037Z,21.90
2023-03-05T07:48:49.474Z,21.12
2023-03-05T07:51:47.051Z,21.00
2023-03-05T07:54:40.926Z,19.87
2023-03-05T07:57:32.090Z,21.77
2023-03-05T08:00:23.947Z,21.62
2023-03-05T08:03:27.579Z,20.48
2023-03-05T08:06:29.448Z,21.17
2023-03-05T08:09:34.494Z,20.70
2023-03-05T08:12:28.336Z,21.05
2023-03-05T08:15:20.979Z,20.92
2023-03-05T08:18:31.348Z,20.23
2023-03-05T08:21:27.216Z,21.97
2023-03-05T08:24:22.822Z,21.93
2023-03-05T08:27:13.782Z,21.75
2023-03-05T08:30:06.856Z,22.73
2023-03-05T08:36:12.333Z,21.52
2023-03-05T08:39:03.783Z,21.77
2023-03-05T08:42:13.721Z,21.70
2023-03-05T08:45:10.428Z,21.73
2023-03-05T08:48:02.165Z,22.30
2023-03-05T08:51:15.484Z,24.43
2023-03-05T08:57:32.074Z,24.85
2023-03-05T09:00:41.766Z,22.90
2023-03-05T09:03:34.956Z,23.62
2023-03-05T09:06:29.798Z,25.55
2023-03-05T09:09:21.805Z,24.32
2023-03-05T09:12:13.550Z,24.65
2023-03-05T09:15:07.864Z,24.87
2023-03-05T09:17:59.897Z,25.35
2023-03-05T09:20:54.665Z,26.07
2023-03-05T09:23:48.361Z,23.95
2023-03-05T09:26:44.580Z,25.48
2023-03-05T09:29:36.282Z,22.77
2023-03-05T09:32:30.110Z,23.22
2023-03-05T09:35:25.845Z,23.47
2023-03-05T09:38:19.182Z,22.60
2023-03-05T09:41:16.254Z,22.13
2023-03-05T09:44:19.452Z,22.87
2023-03-05T09:50:18.674Z,23.60
2023-03-05T09:53:24.477Z,23.70
2023-03-05T09:59:05.536Z,24.95
2023-03-05T10:02:13.278Z,23.12
2023-03-05T10:05:08.151Z,22.10
2023-03-05T10:08:02.097Z,23.02
2023-03-05T10:10:55.876Z,24.23
2023-03-05T10:13:48.891Z,23.50
2023-03-05T10:16:55.846Z,23.30
2023-03-05T10:20:08.317Z,21.30
2023-03-05T10:23:09.637Z,22.58
2023-03-05T10:26:21.064Z,24.25
2023-03-05T10:29:21.625Z,23.57
2023-03-05T10:32:23.923Z,25.05
2023-03-05T10:35:43.778Z,24.18
2023-03-05T10:39:05.271Z,24.05
2023-03-05T10:42:02.953Z,22.82
2023-03-05T10:47:51.601Z,23.83
2023-03-05T10:50:46.427Z,23.70
2023-03-05T10:53:40.920Z,25.00
2023-03-05T10:56:32.832Z,23.55
2023-03-05T10:59:24.253Z,24.95
2023-03-05T11:02:16.304Z,23.60
2023-03-05T11:05:11.762Z,23.98
2023-03-05T11:11:21.735Z,25.02
2023-03-05T11:14:29.441Z,25.15
2023-03-05T11:17:34.619Z,24.80
2023-03-05T11:20:36.217Z,23.12
2023-03-05T11:23:27.478Z,25.52
2023-03-05T11:26:24.009Z,24.23
2023-03-05T11:29:23.742Z,24.07
2023-03-05T11:32:23.154Z,22.40
2023-03-05T11:35:32.769Z,22.87
2023-03-05T11:38:26.005Z,23.80
2023-03-05T11:41:18.191Z,22.93
2023-03-05T11:44:14.378Z,23.32
2023-03-05T11:47:09.210Z,22.77
2023-03-05T11:50:04.413Z,21.93
2023-03-05T11:55:46.742Z,21.27
2023-03-05T11:58:40.912Z,22.67
2023-03-05T12:01:35.925Z,19.87
2023-03-05T12:04:28.108Z,22.85
2023-03-05T12:07:23.925Z,19.82
2023-03-05T12:10:20.948Z,19.92
2023-03-05T12:16:08.458Z,20.65
2023-03-05T12:19:06.335Z,16.50
2023-03-05T12:21:58.182Z,21.27
2023-03-05T12:27:40.340Z,21.37
2023-03-05T12:31:01.756Z,19.73
2023-03-05T12:33:53.145Z,18.92
2023-03-05T12:36:45.091Z,20.68
2023-03-05T12:39:54.704Z,20.85
2023-03-05T12:45:38.338Z,23.12
2023-03-05T12:48:48.789Z,22.77
2023-03-05T12:51:42.283Z,21.52
2023-03-05T12:54:38.771Z,21.35
2023-03-05T12:57:31.761Z,22.62
2023-03-05T13:00:29.066Z,19.98
2023-03-05T13:03:24.392Z,17.52
2023-03-05T13:06:27.176Z,18.60
2023-03-05T13:09:22.313Z,24.23
2023-03-05T13:12:15.251Z,21.85
2023-03-05T13:15:11.773Z,20.30
2023-03-05T13:18:05.675Z,20.50
2023-03-05T13:21:15.111Z,20.70
2023-03-05T13:24:08.281Z,21.70
2023-03-05T13:30:30.140Z,21.52
2023-03-05T13:33:27.918Z,20.23
2023-03-05T13:36:26.101Z,20.68
2023-03-05T13:39:27.550Z,17.60
2023-03-05T13:42:21.700Z,21.77
2023-03-05T13:45:26.969Z,22.62
2023-03-05T13:48:21.612Z,21.40
2023-03-05T13:51:21.209Z,15.60
2023-03-05T13:54:16.877Z,22.45
2023-03-05T13:57:11.112Z,22.20
2023-03-05T14:00:03.341Z,14.30
2023-03-05T14:03:06.870Z,16.45
2023-03-05T14:05:58.517Z,17.75
2023-03-05T14:08:54.634Z,22.93
2023-03-05T14:11:55.678Z,20.60
2023-03-05T14:18:20.513Z,18.52
2023-03-05T14:21:16.605Z,17.52
2023-03-05T14:24:18.079Z,21.90
2023-03-05T14:27:13.453Z,16.23
2023-03-05T14:30:06.291Z,19.57
2023-03-05T14:32:59.629Z,16.55
2023-03-05T14:35:54.104Z,20.45
2023-03-05T14:38:46.026Z,21.23
2023-03-05T14:41:41.165Z,20.48
2023-03-05T14:44:32.633Z,18.20
2023-03-05T14:47:24.485Z,15.03
2023-03-05T14:50:21.201Z,20.48
2023-03-05T14:53:17.339Z,20.25
2023-03-05T14:56:15.603Z,19.60
2023-03-05T15:01:57.846Z,20.32
2023-03-05T15:04:49.815Z,18.12
2023-03-05T15:07:41.596Z,21.25
2023-03-05T15:10:32.860Z,19.80
2023-03-05T15:13:24.437Z,18.10
2023-03-05T15:19:33.380Z,19.73
2023-03-05T15:22:25.155Z,18.10
2023-03-05T15:25:27.085Z,20.02
2023-03-05T15:28:23.138Z,18.82
2023-03-05T15:31:26.778Z,19.15
2023-03-05T15:34:16.942Z,18.85
2023-03-05T15:37:28.140Z,20.60
2023-03-05T15:40:22.990Z,19.32
2023-03-05T15:43:14.584Z,15.40
2023-03-05T15:46:07.693Z,18.62
2023-03-05T15:48:59.927Z,19.50
2023-03-05T15:51:54.564Z,15.28
2023-03-05T15:54:50.981Z,19.60
2023-03-05T15:57:45.636Z,16.95
2023-03-05T16:00:38.488Z,16.65
2023-03-05T16:03:30.478Z,17.12
2023-03-05T16:06:25.452Z,21.60
2023-03-05T16:12:06.569Z,18.85
2023-03-05T16:14:57.992Z,17.65
2023-03-05T16:17:52.236Z,17.85
2023-03-05T16:27:52.852Z,18.65
2023-03-05T16:30:46.418Z,18.07
2023-03-05T16:33:44.991Z,13.30
2023-03-05T16:36:38.370Z,20.55
2023-03-05T16:39:30.249Z,14.98
2023-03-05T16:42:22.137Z,16.77
2023-03-05T16:45:17.145Z,14.65
2023-03-05T16:48:09.105Z,13.10
2023-03-05T16:51:05.203Z,16.10
2023-03-05T16:54:06.359Z,11.60
2023-03-05T16:57:01.580Z,16.87
2023-03-05T17:00:01.351Z,20.88
2023-03-05T17:02:52.802Z,14.53
2023-03-05T17:05:44.662Z,19.45
2023-03-05T17:11:18.580Z,18.95
2023-03-05T17:14:10.184Z,19.48
2023-03-05T17:17:02.588Z,18.50
2023-03-05T17:19:53.961Z,17.37
2023-03-05T17:22:48.717Z,11.78
2023-03-05T17:25:40.441Z,16.90
2023-03-05T17:48:14.504Z,12.98
2023-03-05T17:51:06.512Z,16.45
2023-03-05T17:53:58.940Z,18.75
2023-03-05T17:56:50.436Z,18.70
2023-03-05T17:59:44.411Z,20.80
2023-03-05T18:02:43.231Z,18.40
2023-03-05T18:05:34.823Z,20.55
2023-03-05T18:08:26.415Z,19.50
2023-03-05T18:11:25.382Z,17.60
2023-03-05T18:14:17.229Z,21.05
2023-03-05T18:17:09.209Z,13.32
2023-03-05T18:20:02.837Z,19.12
2023-03-05T18:22:53.534Z,20.10
2023-03-05T18:25:45.074Z,19.57
2023-03-05T18:28:36.422Z,20.12
2023-03-05T18:31:28.142Z,20.70
2023-03-05T18:34:21.189Z,19.90
2023-03-05T18:37:12.610Z,18.07
2023-03-05T18:40:05.455Z,19.55
2023-03-05T18:42:56.700Z,18.40
2023-03-05T18:45:49.061Z,20.27
2023-03-05T18:48:58.799Z,19.80
2023-03-05T18:51:50.925Z,18.65
2023-03-05T18:54:42.485Z,20.23
2023-03-05T18:57:34.155Z,21.80
2023-03-05T19:03:12.405Z,13.98
2023-03-05T19:06:05.263Z,20.65
2023-03-05T19:08:58.811Z,19.57
2023-03-05T19:11:50.629Z,19.48
2023-03-05T19:14:43.998Z,20.70
2023-03-05T19:17:36.449Z,19.57
2023-03-05T19:20:28.247Z,19.05
2023-03-05T19:23:19.188Z,20.05
2023-03-05T19:29:03.473Z,19.55
2023-03-05T19:31:56.845Z,19.55
2023-03-05T19:34:50.017Z,19.55
2023-03-05T19:37:41.341Z,20.48
2023-03-05T19:40:32.423Z,19.60
2023-03-05T19:43:23.844Z,19.82
2023-03-05T19:46:15.778Z,21.20
2023-03-05T19:49:07.359Z,19.65
2023-03-05T19:51:58.628Z,18.07
2023-03-05T19:54:51.359Z,19.23
2023-03-05T19:57:42.539Z,18.60
2023-03-05T20:00:33.735Z,19.65
2023-03-05T20:03:28.075Z,17.73
2023-03-05T20:06:20.312Z,18.20
2023-03-05T20:09:11.683Z,18.37
2023-03-05T20:12:04.559Z,18.15
2023-03-05T20:14:55.734Z,19.73
2023-03-05T20:17:47.494Z,18.82
2023-03-05T20:20:39.853Z,20.15
2023-03-05T20:23:31.431Z,20.55
2023-03-05T20:26:26.016Z,20.57
2023-03-05T20:29:19.106Z,22.70
2023-03-05T20:35:01.960Z,22.75
2023-03-05T20:37:55.591Z,21.10
2023-03-05T20:40:46.896Z,22.35
2023-03-05T20:43:41.380Z,22.22
2023-03-05T20:46:35.012Z,20.97
2023-03-05T20:49:28.190Z,21.97
2023-03-05T20:52:19.417Z,22.00
2023-03-05T20:55:12.826Z,20.88
2023-03-05T20:58:04.765Z,22.15
2023-03-05T21:00:56.276Z,21.52
2023-03-05T21:03:47.875Z,21.73
2023-03-05T21:06:39.162Z,21.27
2023-03-05T21:09:31.569Z,20.82
2023-03-05T21:12:22.780Z,20.77
2023-03-05T21:15:16.005Z,21.55
2023-03-05T21:18:08.097Z,21.17
2023-03-05T21:20:59.443Z,20.57
2023-03-05T21:23:50.942Z,20.37
2023-03-05T21:26:44.954Z,21.97
2023-03-05T21:29:36.566Z,21.82
2023-03-05T21:32:27.830Z,21.35
2023-03-05T21:35:22.227Z,21.33
2023-03-05T21:38:14.662Z,20.45
2023-03-05T21:41:07.079Z,20.97
2023-03-05T21:44:00.204Z,20.55
2023-03-05T21:46:51.295Z,21.33
2023-03-05T21:49:42.698Z,21.60
2023-03-05T21:52:33.912Z,20.55
2023-03-05T21:55:27.722Z,21.73
2023-03-05T21:58:19.141Z,20.80
2023-03-05T22:01:12.757Z,20.10
2023-03-05T22:04:04.623Z,20.65
2023-03-05T22:06:56.350Z,21.75
2023-03-05T22:09:48.092Z,21.30
2023-03-05T22:12:44.473Z,20.57
2023-03-05T22:15:38.349Z,20.57
2023-03-05T22:18:34.255Z,21.05
2023-03-05T22:21:43.400Z,21.33
2023-03-05T22:24:36.188Z,21.62
2023-03-05T22:27:27.852Z,21.80
2023-03-05T22:30:19.325Z,21.77
2023-03-05T22:33:11.256Z,21.07
2023-03-05T22:36:09.174Z,22.48
2023-03-05T22:39:19.920Z,21.70
2023-03-05T22:42:12.992Z,21.30
2023-03-05T22:45:04.618Z,21.93
2023-03-05T22:47:56.112Z,21.12
2023-03-05T22:50:47.702Z,22.45
2023-03-05T22:53:40.058Z,20.20
2023-03-05T22:56:31.667Z,22.25
2023-03-05T22:59:23.161Z,21.23
2023-03-05T23:02:14.818Z,20.77
2023-03-05T23:05:11.712Z,20.92
2023-03-05T23:08:03.188Z,21.93
2023-03-05T23:10:54.404Z,22.00
2023-03-05T23:13:45.956Z,21.07
2023-03-05T23:16:37.109Z,21.20
2023-03-05T23:19:28.238Z,21.85
2023-03-05T23:22:20.363Z,21.23
2023-03-05T23:25:13.450Z,20.10
2023-03-05T23:28:08.606Z,20.90
2023-03-05T23:31:01.206Z,20.23
2023-03-05T23:33:52.813Z,19.85
2023-03-05T23:36:44.253Z,20.43
2023-03-05T23:39:35.772Z,21.70
2023-03-05T23:42:27.392Z,20.80
2023-03-05T23:45:20.458Z,22.60
2023-03-05T23:48:12.271Z,20.27
2023-03-05T23:51:03.509Z,20.40
2023-03-05T23:53:54.734Z,21.45
2023-03-05T23:56:46.389Z,21.42
2023-03-05T23:59:38.994Z,21.23
